Strona główna
METAR-TAF:

METAR-TAF

Lotnisko :

Pottstown Limerick Airport

Pottstown, Pensylwania, Stany Zjednoczone

Szerokość geograficzna: 40-14-18N, Długość geograficzna: 075-33-26W, wysokość: 89 m

Aktualna obserwacja pogody

Raport powstał 22 minut temu, godzina 16:54 UTC
Wiatr 6 kt od wschód
Temperatura 5°C
Wilgotność 87%
Ciśnienie 1013 hPa
Widzialność: 6.4 km
Przerywane chmury na wysokości 1100 ft
Przerywane chmury na wysokości 1600 ft
Zachmurzenie całkowite na wysokości 2500 ft
zamglenie

METAR: KPTW 151654Z AUTO 08006KT 4SM BR BKN011 BKN016 OVC025 05/03 A2990 RMK AO2 SLP124 T00500028

czas: 12:16 (17:16 UTC)


TAF: brakujący

Obserwacja i prognoza pogody dla ponad 4000 lotnisk (raport METAR i TAF).

Dostępne stacje oznaczono żółtymi i czerwonymi punktami na mapie.

Najedź kursorem aby zobaczyć nazwę stacji.

Kliknij aby zobaczyć obserwacje i prognozy pogody.

Aby zmienić mapę: kliknij na zielony przycisk z czarnym krzyżykiem, aby powiększyć; na zielony przycisk z myślnikiem, aby pomniejszyć; na zielone strzałki, aby przejść do map sąsiednich.


METAR-TAF: